| time (UTC) | temp F | wind direction | speed MPH | gust MPH | rain 1hr in | rain 24hr in | rain mn in | humidity % | barometer mb |
| 20260509223018 | 58 | 80 | 0.0 | 0.0 | 0.00 | 0.24 | 0.24 | 81 | 1006.4 |
| 20260509221518 | 58 | 79 | 0.0 | 0.0 | 0.00 | 0.24 | 0.24 | 81 | 1006.2 |
| 20260509220024 | 58 | 128 | 0.0 | 0.0 | 0.00 | 0.24 | 0.24 | 80 | 1006.1 |
| 20260509214521 | 58 | 115 | 0.0 | 0.0 | 0.00 | 0.24 | 0.24 | 82 | 1006.5 |
| 20260509213014 | 58 | 46 | 0.0 | 0.0 | 0.00 | 0.24 | 0.24 | 82 | 1006.7 |
| 20260509211517 | 58 | 174 | 0.0 | 0.0 | 0.00 | 0.24 | 0.24 | 81 | 1006.7 |
| 20260509210010 | 57 | 90 | 0.0 | 0.0 | 0.00 | 0.24 | 0.24 | 84 | 1006.7 |
| 20260509204508 | 57 | 140 | 0.0 | 0.0 | 0.00 | 0.24 | 0.24 | 83 | 1006.6 |
| 20260509203004 | 55 | 131 | 0.0 | 0.0 | 0.01 | 0.24 | 0.24 | 87 | 1006.7 |
| 20260509201609 | 54 | 120 | 0.0 | 0.0 | 0.01 | 0.24 | 0.24 | 90 | 1006.8 |
| 20260509200107 | 53 | 159 | 0.0 | 0.0 | 0.01 | 0.24 | 0.24 | 92 | 1007.1 |
| 20260509194556 | 53 | 112 | 0.0 | 0.0 | 0.01 | 0.24 | 0.24 | 92 | 1006.9 |
| 20260509193057 | 53 | 142 | 0.0 | 0.0 | 0.00 | 0.23 | 0.23 | 91 | 1007.2 |
| 20260509191555 | 53 | 146 | 0.0 | 0.0 | 0.00 | 0.23 | 0.23 | 93 | 1007.3 |
| 20260509190053 | 53 | 125 | 0.0 | 0.0 | 0.00 | 0.23 | 0.23 | 93 | 1007.5 |
| 20260509184601 | 52 | 133 | 0.0 | 0.0 | 0.00 | 0.23 | 0.23 | 92 | 1007.5 |
| 20260509183053 | 53 | 97 | 0.0 | 0.0 | 0.02 | 0.23 | 0.23 | 93 | 1007.3 |
| 20260509181619 | 53 | 127 | 0.0 | 0.0 | 0.03 | 0.23 | 0.23 | 92 | 1007.3 |
| 20260509180051 | 52 | 93 | 0.0 | 0.0 | 0.04 | 0.23 | 0.23 | 93 | 1007.2 |
| 20260509174551 | 52 | 113 | 0.0 | 0.0 | 0.04 | 0.24 | 0.23 | 93 | 1007.2 |
| 20260509173059 | 53 | 86 | 0.0 | 0.0 | 0.03 | 0.22 | 0.21 | 93 | 1007.0 |
| 20260509171548 | 52 | 149 | 0.0 | 0.0 | 0.02 | 0.21 | 0.20 | 92 | 1007.2 |
| 20260509170046 | 53 | 141 | 0.0 | 0.0 | 0.02 | 0.20 | 0.19 | 94 | 1007.6 |
| 20260509164545 | 52 | 120 | 0.0 | 0.0 | 0.02 | 0.25 | 0.19 | 93 | 1007.7 |
| 20260509163044 | 52 | 117 | 0.0 | 0.0 | 0.02 | 0.24 | 0.18 | 93 | 1007.6 |
| 20260509161544 | 52 | 131 | 0.0 | 0.0 | 0.02 | 0.24 | 0.18 | 94 | 1007.8 |
| 20260509160045 | 52 | 116 | 0.0 | 0.0 | 0.02 | 0.23 | 0.17 | 95 | 1007.9 |
| 20260509154542 | 52 | 116 | 0.0 | 0.0 | 0.03 | 0.23 | 0.17 | 93 | 1008.1 |
| 20260509153045 | 52 | 138 | 0.0 | 0.0 | 0.02 | 0.22 | 0.16 | 95 | 1008.2 |
| 20260509151538 | 52 | 111 | 0.0 | 0.0 | 0.03 | 0.22 | 0.16 | 95 | 1008.4 |
| 20260509150039 | 51 | 130 | 0.0 | 0.0 | 0.03 | 0.21 | 0.15 | 95 | 1008.4 |
| 20260509144549 | 51 | 190 | 0.0 | 0.0 | 0.02 | 0.20 | 0.14 | 97 | 1008.5 |
| 20260509143033 | 51 | 298 | 0.0 | 0.0 | 0.02 | 0.20 | 0.14 | 97 | 1008.6 |
| 20260509141533 | 50 | 298 | 0.0 | 0.0 | 0.01 | 0.19 | 0.13 | 97 | 1008.8 |
| 20260509140029 | 50 | 306 | 0.0 | 0.0 | 0.01 | 0.18 | 0.12 | 97 | 1008.7 |
| 20260509134545 | 49 | 214 | 0.0 | 0.0 | 0.01 | 0.18 | 0.12 | 97 | 1008.7 |
| 20260509133025 | 49 | 214 | 0.0 | 0.0 | 0.01 | 0.18 | 0.12 | 97 | 1008.7 |
| 20260509131524 | 49 | 214 | 0.0 | 0.0 | 0.02 | 0.18 | 0.12 | 97 | 1008.7 |
| 20260509130023 | 49 | 214 | 0.0 | 0.0 | 0.01 | 0.17 | 0.11 | 97 | 1008.7 |
| 20260509124521 | 48 | 229 | 0.0 | 0.0 | 0.01 | 0.17 | 0.11 | 97 | 1008.6 |
| 20260509123020 | 48 | 218 | 0.0 | 0.0 | 0.01 | 0.17 | 0.11 | 97 | 1008.8 |
| 20260509121536 | 48 | 218 | 0.0 | 0.0 | 0.00 | 0.16 | 0.10 | 97 | 1008.9 |
| 20260509120016 | 48 | 218 | 0.0 | 0.0 | 0.00 | 0.16 | 0.10 | 97 | 1009.0 |
| 20260509114528 | 48 | 218 | 0.0 | 0.0 | 0.00 | 0.16 | 0.10 | 97 | 1008.9 |
| 20260509113023 | 48 | 166 | 0.0 | 0.0 | 0.00 | 0.16 | 0.10 | 97 | 1008.9 |
| 20260509111512 | 47 | 166 | 0.0 | 0.0 | 0.00 | 0.16 | 0.10 | 97 | 1009.1 |
| 20260509110011 | 47 | 175 | 0.0 | 0.0 | 0.00 | 0.16 | 0.10 | 97 | 1009.1 |
| 20260509104516 | 47 | 175 | 0.0 | 0.0 | 0.01 | 0.16 | 0.10 | 97 | 1009.2 |
| 20260509103010 | 47 | 175 | 0.0 | 0.0 | 0.01 | 0.16 | 0.10 | 97 | 1009.2 |
| 20260509101510 | 47 | 175 | 0.0 | 0.0 | 0.02 | 0.16 | 0.10 | 97 | 1009.0 |
| 20260509100008 | 47 | 175 | 0.0 | 0.0 | 0.02 | 0.16 | 0.10 | 97 | 1009.1 |
| 20260509094517 | 47 | 175 | 0.0 | 0.0 | 0.01 | 0.15 | 0.09 | 97 | 1009.3 |
| 20260509093008 | 47 | 175 | 0.0 | 0.0 | 0.01 | 0.15 | 0.09 | 97 | 1009.4 |
| 20260509091506 | 47 | 175 | 0.0 | 0.0 | 0.00 | 0.14 | 0.08 | 97 | 1009.3 |
| 20260509090004 | 47 | 175 | 0.0 | 0.0 | 0.01 | 0.14 | 0.08 | 97 | 1009.4 |
| 20260509084504 | 47 | 175 | 0.0 | 0.0 | 0.01 | 0.14 | 0.08 | 97 | 1009.5 |
| 20260509083004 | 47 | 175 | 0.0 | 0.0 | 0.02 | 0.14 | 0.08 | 96 | 1009.3 |
| 20260509081504 | 47 | 175 | 0.0 | 0.0 | 0.02 | 0.14 | 0.08 | 96 | 1009.6 |
| 20260509080000 | 47 | 175 | 0.0 | 0.0 | 0.02 | 0.13 | 0.07 | 96 | 1009.9 |
| 20260509074600 | 47 | 175 | 0.0 | 0.0 | 0.03 | 0.13 | 0.07 | 96 | 1010.0 |
| 20260509073107 | 47 | 175 | 0.0 | 0.0 | 0.03 | 0.12 | 0.06 | 96 | 1010.1 |
| 20260509071600 | 47 | 175 | 0.0 | 0.0 | 0.04 | 0.12 | 0.06 | 96 | 1010.3 |
| 20260509070057 | 47 | 175 | 0.0 | 0.0 | 0.04 | 0.11 | 0.05 | 96 | 1010.4 |
| 20260509064618 | 47 | 175 | 0.0 | 0.0 | 0.04 | 0.10 | 0.04 | 96 | 1010.4 |
| 20260509063055 | 47 | 175 | 0.0 | 0.0 | 0.03 | 0.09 | 0.03 | 96 | 1010.4 |
| 20260509061555 | 47 | 175 | 0.0 | 0.0 | 0.02 | 0.08 | 0.02 | 95 | 1010.7 |
| 20260509060052 | 47 | 175 | 0.0 | 0.0 | 0.01 | 0.07 | 0.01 | 95 | 1010.7 |
| 20260509054559 | 47 | 175 | 0.0 | 0.0 | 0.00 | 0.06 | 0.00 | 94 | 1010.8 |
| 20260509053049 | 47 | 175 | 0.0 | 0.0 | 0.00 | 0.06 | 0.00 | 94 | 1010.5 |
| 20260509051541 | 47 | 175 | 0.0 | 0.0 | 0.00 | 0.06 | 0.00 | 94 | 1010.5 |
| 20260509050040 | 47 | 142 | 0.0 | 0.0 | 0.00 | 0.06 | 0.00 | 93 | 1010.3 |
| 20260509044539 | 47 | 136 | 0.0 | 0.0 | 0.00 | 0.11 | 0.00 | 93 | 1010.2 |
| 20260509043038 | 47 | 189 | 0.0 | 0.0 | 0.00 | 0.11 | 0.00 | 92 | 1010.2 |
| 20260509041556 | 47 | 234 | 0.0 | 0.0 | 0.00 | 0.11 | 0.00 | 92 | 1010.4 |
| 20260509040030 | 46 | 213 | 0.0 | 0.0 | 0.00 | 0.11 | 0.00 | 92 | 1010.6 |
| 20260509034527 | 46 | 117 | 0.0 | 0.0 | 0.00 | 0.20 | 0.11 | 92 | 1010.7 |
| 20260509033027 | 46 | 289 | 0.0 | 0.0 | 0.00 | 0.20 | 0.11 | 92 | 1010.4 |
| 20260509031534 | 46 | 339 | 0.0 | 0.0 | 0.00 | 0.20 | 0.11 | 92 | 1010.6 |
| 20260509030026 | 47 | 179 | 0.0 | 0.0 | 0.00 | 0.20 | 0.11 | 91 | 1010.6 |
| 20260509024525 | 46 | 338 | 0.0 | 0.0 | 0.00 | 0.20 | 0.11 | 92 | 1010.5 |
| 20260509023028 | 46 | 65 | 0.0 | 0.0 | 0.00 | 0.20 | 0.11 | 92 | 1010.2 |
| 20260509021533 | 47 | 32 | 0.0 | 0.0 | 0.00 | 0.20 | 0.11 | 92 | 1010.4 |
| 20260509020040 | 47 | 21 | 0.0 | 0.0 | 0.00 | 0.20 | 0.11 | 90 | 1010.6 |
| 20260509014524 | 48 | 134 | 0.0 | 0.0 | 0.00 | 0.20 | 0.11 | 89 | 1010.4 |
| 20260509013035 | 49 | 134 | 0.0 | 0.0 | 0.00 | 0.20 | 0.11 | 89 | 1010.3 |
| 20260509011523 | 49 | 134 | 0.0 | 0.0 | 0.00 | 0.20 | 0.11 | 89 | 1010.2 |
| 20260509010022 | 49 | 134 | 0.0 | 0.0 | 0.00 | 0.20 | 0.11 | 88 | 1010.1 |
| 20260509004522 | 50 | 140 | 0.0 | 0.0 | 0.00 | 0.20 | 0.11 | 87 | 1009.8 |
| 20260509003022 | 51 | 140 | 0.0 | 0.0 | 0.00 | 0.20 | 0.11 | 86 | 1009.8 |
| 20260509001521 | 51 | 140 | 0.0 | 0.0 | 0.00 | 0.20 | 0.11 | 84 | 1009.5 |
| 20260509000020 | 51 | 158 | 0.0 | 0.0 | 0.00 | 0.20 | 0.11 | 83 | 1009.7 |
| 20260508234519 | 51 | 163 | 0.0 | 0.0 | 0.00 | 0.20 | 0.11 | 85 | 1009.7 |
| 20260508233021 | 51 | 173 | 0.0 | 0.0 | 0.00 | 0.20 | 0.11 | 87 | 1009.5 |
| 20260508231519 | 51 | 173 | 0.0 | 0.0 | 0.00 | 0.20 | 0.11 | 85 | 1009.4 |
| 20260508230022 | 52 | 173 | 0.0 | 0.0 | 0.00 | 0.20 | 0.11 | 83 | 1009.2 |
| 20260508224524 | 52 | 172 | 0.0 | 0.0 | 0.00 | 0.20 | 0.11 | 83 | 1009.3 |